sensor_id;sensor_type;location;lat;lon;timestamp;pressure;altitude;pressure_sealevel;temperature;humidity
61761;BME280;47664;51.660;-0.100;2023-04-28T00:02:09;100160.54;;;9.86;72.27
61761;BME280;47664;51.660;-0.100;2023-04-28T00:04:37;100156.75;;;9.57;71.86
61761;BME280;47664;51.660;-0.100;2023-04-28T00:07:04;100150.98;;;10.29;71.39
61761;BME280;47664;51.660;-0.100;2023-04-28T00:09:32;100150.06;;;10.41;70.64
61761;BME280;47664;51.660;-0.100;2023-04-28T00:11:59;100151.38;;;10.31;70.25
61761;BME280;47664;51.660;-0.100;2023-04-28T00:14:27;100148.43;;;10.86;69.48
61761;BME280;47664;51.660;-0.100;2023-04-28T00:16:53;100146.24;;;10.36;69.74
61761;BME280;47664;51.660;-0.100;2023-04-28T00:19:21;100142.35;;;10.57;69.87
61761;BME280;47664;51.660;-0.100;2023-04-28T00:21:48;100138.52;;;10.37;69.76
61761;BME280;47664;51.660;-0.100;2023-04-28T00:24:16;100134.13;;;10.65;69.98
61761;BME280;47664;51.660;-0.100;2023-04-28T00:26:43;100130.89;;;10.04;70.23
61761;BME280;47664;51.660;-0.100;2023-04-28T00:29:09;100128.79;;;10.32;70.06
61761;BME280;47664;51.660;-0.100;2023-04-28T00:31:37;100123.99;;;10.07;69.75
61761;BME280;47664;51.660;-0.100;2023-04-28T00:34:04;100122.78;;;10.55;69.51
61761;BME280;47664;51.660;-0.100;2023-04-28T00:36:32;100123.12;;;10.58;69.62
61761;BME280;47664;51.660;-0.100;2023-04-28T00:38:59;100117.03;;;10.45;69.84
61761;BME280;47664;51.660;-0.100;2023-04-28T00:41:26;100119.15;;;10.77;69.72
61761;BME280;47664;51.660;-0.100;2023-04-28T00:43:54;100115.84;;;10.46;69.24
61761;BME280;47664;51.660;-0.100;2023-04-28T00:46:23;100115.82;;;10.39;70.31
61761;BME280;47664;51.660;-0.100;2023-04-28T00:48:50;100116.17;;;9.95;70.68
61761;BME280;47664;51.660;-0.100;2023-04-28T00:51:17;100114.16;;;10.41;70.22
61761;BME280;47664;51.660;-0.100;2023-04-28T00:53:45;100112.99;;;10.27;69.98
61761;BME280;47664;51.660;-0.100;2023-04-28T00:56:12;100109.22;;;10.85;69.24
61761;BME280;47664;51.660;-0.100;2023-04-28T00:58:40;100106.09;;;10.50;68.91
61761;BME280;47664;51.660;-0.100;2023-04-28T01:01:08;100103.53;;;10.57;69.45
61761;BME280;47664;51.660;-0.100;2023-04-28T01:03:38;100103.16;;;10.45;69.02
61761;BME280;47664;51.660;-0.100;2023-04-28T01:06:06;100102.09;;;10.59;68.61
61761;BME280;47664;51.660;-0.100;2023-04-28T01:08:36;100100.66;;;10.59;68.30
61761;BME280;47664;51.660;-0.100;2023-04-28T01:11:04;100099.31;;;10.45;68.59
61761;BME280;47664;51.660;-0.100;2023-04-28T01:13:32;100097.63;;;10.67;68.33
61761;BME280;47664;51.660;-0.100;2023-04-28T01:16:00;100094.66;;;10.60;68.60
61761;BME280;47664;51.660;-0.100;2023-04-28T01:18:27;100099.99;;;10.57;69.59
61761;BME280;47664;51.660;-0.100;2023-04-28T01:20:55;100098.28;;;10.42;69.12
61761;BME280;47664;51.660;-0.100;2023-04-28T01:23:22;100096.94;;;10.41;69.19
61761;BME280;47664;51.660;-0.100;2023-04-28T01:25:49;100096.50;;;10.64;68.66
61761;BME280;47664;51.660;-0.100;2023-04-28T01:28:17;100094.86;;;11.26;68.71
61761;BME280;47664;51.660;-0.100;2023-04-28T01:30:44;100093.93;;;10.53;68.36
61761;BME280;47664;51.660;-0.100;2023-04-28T01:33:12;100096.42;;;10.98;68.15
61761;BME280;47664;51.660;-0.100;2023-04-28T01:35:39;100092.19;;;10.25;67.57
61761;BME280;47664;51.660;-0.100;2023-04-28T01:38:06;100085.75;;;10.85;67.41
61761;BME280;47664;51.660;-0.100;2023-04-28T01:40:34;100079.22;;;10.87;68.19
61761;BME280;47664;51.660;-0.100;2023-04-28T01:43:02;100082.22;;;11.03;67.97
61761;BME280;47664;51.660;-0.100;2023-04-28T01:45:29;100083.93;;;11.34;67.86
61761;BME280;47664;51.660;-0.100;2023-04-28T01:47:56;100082.76;;;11.23;67.67
61761;BME280;47664;51.660;-0.100;2023-04-28T01:50:24;100081.17;;;11.08;67.88
61761;BME280;47664;51.660;-0.100;2023-04-28T01:52:51;100081.11;;;10.99;67.75
61761;BME280;47664;51.660;-0.100;2023-04-28T01:55:18;100079.77;;;11.46;67.06
61761;BME280;47664;51.660;-0.100;2023-04-28T01:57:45;100079.12;;;10.64;67.76
61761;BME280;47664;51.660;-0.100;2023-04-28T02:00:13;100079.53;;;11.26;67.81
61761;BME280;47664;51.660;-0.100;2023-04-28T02:02:40;100075.74;;;10.73;67.81
61761;BME280;47664;51.660;-0.100;2023-04-28T02:05:08;100075.32;;;11.14;67.99
61761;BME280;47664;51.660;-0.100;2023-04-28T02:07:35;100073.00;;;11.07;67.85
61761;BME280;47664;51.660;-0.100;2023-04-28T02:10:03;100070.44;;;11.20;68.04
61761;BME280;47664;51.660;-0.100;2023-04-28T02:12:31;100070.89;;;11.36;68.34
61761;BME280;47664;51.660;-0.100;2023-04-28T02:14:58;100075.70;;;11.32;68.08
61761;BME280;47664;51.660;-0.100;2023-04-28T02:17:25;100081.53;;;11.19;67.99
61761;BME280;47664;51.660;-0.100;2023-04-28T02:19:54;100085.32;;;11.38;67.88
61761;BME280;47664;51.660;-0.100;2023-04-28T02:22:21;100081.49;;;11.50;67.69
61761;BME280;47664;51.660;-0.100;2023-04-28T02:24:48;100080.19;;;10.92;67.53
61761;BME280;47664;51.660;-0.100;2023-04-28T02:27:16;100081.89;;;11.65;67.07
61761;BME280;47664;51.660;-0.100;2023-04-28T02:29:44;100082.49;;;11.30;67.36
61761;BME280;47664;51.660;-0.100;2023-04-28T02:32:11;100082.09;;;11.53;67.41
61761;BME280;47664;51.660;-0.100;2023-04-28T02:34:43;100079.23;;;10.97;66.96
61761;BME280;47664;51.660;-0.100;2023-04-28T02:37:10;100081.01;;;11.65;66.68
61761;BME280;47664;51.660;-0.100;2023-04-28T02:39:42;100080.70;;;11.05;66.78
61761;BME280;47664;51.660;-0.100;2023-04-28T02:42:09;100080.34;;;11.76;66.74
61761;BME280;47664;51.660;-0.100;2023-04-28T02:44:36;100080.02;;;11.05;66.89
61761;BME280;47664;51.660;-0.100;2023-04-28T02:47:03;100075.26;;;11.61;67.83
61761;BME280;47664;51.660;-0.100;2023-04-28T02:49:31;100075.96;;;11.47;68.84
61761;BME280;47664;51.660;-0.100;2023-04-28T02:51:59;100076.89;;;11.19;69.74
61761;BME280;47664;51.660;-0.100;2023-04-28T02:54:25;100079.38;;;11.17;70.17
61761;BME280;47664;51.660;-0.100;2023-04-28T02:56:53;100075.81;;;11.08;70.52
61761;BME280;47664;51.660;-0.100;2023-04-28T02:59:20;100077.20;;;11.29;70.90
61761;BME280;47664;51.660;-0.100;2023-04-28T03:01:47;100078.28;;;11.00;72.10
61761;BME280;47664;51.660;-0.100;2023-04-28T03:04:15;100072.95;;;10.95;72.53
61761;BME280;47664;51.660;-0.100;2023-04-28T03:06:42;100070.69;;;10.80;71.55
61761;BME280;47664;51.660;-0.100;2023-04-28T03:09:10;100072.53;;;11.42;71.67
61761;BME280;47664;51.660;-0.100;2023-04-28T03:11:38;100073.44;;;10.61;72.18
61761;BME280;47664;51.660;-0.100;2023-04-28T03:14:06;100073.50;;;11.52;71.12
61761;BME280;47664;51.660;-0.100;2023-04-28T03:16:33;100070.18;;;11.31;71.67
61761;BME280;47664;51.660;-0.100;2023-04-28T03:19:06;100068.43;;;11.54;71.21
61761;BME280;47664;51.660;-0.100;2023-04-28T03:21:33;100066.78;;;10.96;72.45
61761;BME280;47664;51.660;-0.100;2023-04-28T03:24:01;100064.88;;;11.04;72.93
61761;BME280;47664;51.660;-0.100;2023-04-28T03:26:28;100064.35;;;11.34;72.40
61761;BME280;47664;51.660;-0.100;2023-04-28T03:28:55;100070.64;;;11.34;72.33
61761;BME280;47664;51.660;-0.100;2023-04-28T03:31:22;100067.95;;;11.19;72.73
61761;BME280;47664;51.660;-0.100;2023-04-28T03:33:49;100065.77;;;11.37;71.83
61761;BME280;47664;51.660;-0.100;2023-04-28T03:36:16;100065.57;;;11.20;72.61
61761;BME280;47664;51.660;-0.100;2023-04-28T03:38:44;100067.21;;;10.88;72.50
61761;BME280;47664;51.660;-0.100;2023-04-28T03:41:11;100071.56;;;10.92;74.32
61761;BME280;47664;51.660;-0.100;2023-04-28T03:43:38;100071.67;;;10.42;73.00
61761;BME280;47664;51.660;-0.100;2023-04-28T03:46:04;100075.12;;;10.89;73.51
61761;BME280;47664;51.660;-0.100;2023-04-28T03:48:32;100076.67;;;11.42;72.44
61761;BME280;47664;51.660;-0.100;2023-04-28T03:50:59;100075.56;;;11.11;73.17
61761;BME280;47664;51.660;-0.100;2023-04-28T03:53:26;100072.88;;;10.66;74.49
61761;BME280;47664;51.660;-0.100;2023-04-28T03:55:53;100076.10;;;10.80;75.14
61761;BME280;47664;51.660;-0.100;2023-04-28T03:58:20;100075.13;;;10.94;73.93
61761;BME280;47664;51.660;-0.100;2023-04-28T04:00:48;100069.20;;;10.90;73.27
61761;BME280;47664;51.660;-0.100;2023-04-28T04:03:16;100066.86;;;11.30;73.01
61761;BME280;47664;51.660;-0.100;2023-04-28T04:05:43;100071.84;;;10.82;72.33
61761;BME280;47664;51.660;-0.100;2023-04-28T04:08:10;100073.16;;;11.22;72.92
61761;BME280;47664;51.660;-0.100;2023-04-28T04:10:37;100076.52;;;10.84;72.79
61761;BME280;47664;51.660;-0.100;2023-04-28T04:13:04;100079.17;;;11.33;72.82
61761;BME280;47664;51.660;-0.100;2023-04-28T04:15:32;100086.33;;;11.18;73.54
61761;BME280;47664;51.660;-0.100;2023-04-28T04:17:59;100082.72;;;11.05;73.43
61761;BME280;47664;51.660;-0.100;2023-04-28T04:20:26;100082.14;;;11.31;72.78
61761;BME280;47664;51.660;-0.100;2023-04-28T04:22:54;100082.79;;;11.17;73.24
61761;BME280;47664;51.660;-0.100;2023-04-28T04:25:26;100083.36;;;11.31;73.53
61761;BME280;47664;51.660;-0.100;2023-04-28T04:27:53;100082.25;;;11.21;73.05
61761;BME280;47664;51.660;-0.100;2023-04-28T04:30:20;100086.68;;;11.10;74.70
61761;BME280;47664;51.660;-0.100;2023-04-28T04:32:47;100088.98;;;10.03;76.45
61761;BME280;47664;51.660;-0.100;2023-04-28T04:35:14;100087.58;;;10.91;75.53
61761;BME280;47664;51.660;-0.100;2023-04-28T04:37:46;100087.32;;;10.19;74.82
61761;BME280;47664;51.660;-0.100;2023-04-28T04:40:13;100096.21;;;10.85;74.36
61761;BME280;47664;51.660;-0.100;2023-04-28T04:42:40;100096.50;;;10.22;75.42
61761;BME280;47664;51.660;-0.100;2023-04-28T04:45:08;100100.82;;;10.85;75.71
61761;BME280;47664;51.660;-0.100;2023-04-28T04:47:36;100101.56;;;10.64;75.27
61761;BME280;47664;51.660;-0.100;2023-04-28T04:50:04;100102.79;;;10.73;75.35
61761;BME280;47664;51.660;-0.100;2023-04-28T04:52:31;100106.46;;;11.19;74.79
61761;BME280;47664;51.660;-0.100;2023-04-28T04:54:59;100106.91;;;10.81;75.13
61761;BME280;47664;51.660;-0.100;2023-04-28T04:57:26;100108.59;;;11.04;74.46
61761;BME280;47664;51.660;-0.100;2023-04-28T04:59:53;100109.56;;;10.75;74.32
61761;BME280;47664;51.660;-0.100;2023-04-28T05:02:20;100107.51;;;10.98;74.80
61761;BME280;47664;51.660;-0.100;2023-04-28T05:04:47;100109.40;;;10.84;74.34
61761;BME280;47664;51.660;-0.100;2023-04-28T05:07:14;100116.05;;;10.98;73.96
61761;BME280;47664;51.660;-0.100;2023-04-28T05:09:41;100117.54;;;10.43;73.40
61761;BME280;47664;51.660;-0.100;2023-04-28T05:12:09;100118.32;;;11.41;72.67
61761;BME280;47664;51.660;-0.100;2023-04-28T05:14:37;100122.72;;;10.91;73.09
61761;BME280;47664;51.660;-0.100;2023-04-28T05:17:04;100112.16;;;11.32;73.89
61761;BME280;47664;51.660;-0.100;2023-04-28T05:19:32;100115.17;;;11.12;74.78
61761;BME280;47664;51.660;-0.100;2023-04-28T05:21:59;100118.01;;;11.44;74.89
61761;BME280;47664;51.660;-0.100;2023-04-28T05:24:26;100121.53;;;11.29;74.48
61761;BME280;47664;51.660;-0.100;2023-04-28T05:26:53;100125.36;;;10.67;74.34
61761;BME280;47664;51.660;-0.100;2023-04-28T05:29:20;100126.33;;;10.94;74.93
61761;BME280;47664;51.660;-0.100;2023-04-28T05:31:47;100127.49;;;10.57;74.14
61761;BME280;47664;51.660;-0.100;2023-04-28T05:34:14;100125.21;;;10.98;74.05
61761;BME280;47664;51.660;-0.100;2023-04-28T05:36:41;100132.52;;;10.32;73.77
61761;BME280;47664;51.660;-0.100;2023-04-28T05:39:08;100139.00;;;10.81;74.27
61761;BME280;47664;51.660;-0.100;2023-04-28T05:41:36;100143.13;;;10.70;73.84
61761;BME280;47664;51.660;-0.100;2023-04-28T05:44:04;100144.66;;;11.31;73.18
61761;BME280;47664;51.660;-0.100;2023-04-28T05:46:31;100147.38;;;11.54;73.37
61761;BME280;47664;51.660;-0.100;2023-04-28T05:48:59;100153.02;;;11.40;73.06
61761;BME280;47664;51.660;-0.100;2023-04-28T05:51:26;100153.13;;;10.84;74.54
61761;BME280;47664;51.660;-0.100;2023-04-28T05:53:53;100157.37;;;10.71;74.94
61761;BME280;47664;51.660;-0.100;2023-04-28T05:56:20;100156.19;;;11.27;74.49
61761;BME280;47664;51.660;-0.100;2023-04-28T05:58:47;100157.58;;;10.77;74.06
61761;BME280;47664;51.660;-0.100;2023-04-28T06:01:14;100163.83;;;11.47;73.47
61761;BME280;47664;51.660;-0.100;2023-04-28T06:03:42;100167.35;;;10.66;73.65
61761;BME280;47664;51.660;-0.100;2023-04-28T06:06:09;100164.00;;;11.32;73.35
61761;BME280;47664;51.660;-0.100;2023-04-28T06:08:38;100164.43;;;10.93;73.60
61761;BME280;47664;51.660;-0.100;2023-04-28T06:11:05;100158.53;;;11.83;72.90
61761;BME280;47664;51.660;-0.100;2023-04-28T06:13:32;100168.40;;;11.70;73.01
61761;BME280;47664;51.660;-0.100;2023-04-28T06:15:59;100170.90;;;11.70;72.84
61761;BME280;47664;51.660;-0.100;2023-04-28T06:18:28;100168.11;;;11.70;72.96
61761;BME280;47664;51.660;-0.100;2023-04-28T06:20:55;100169.24;;;11.42;72.99
61761;BME280;47664;51.660;-0.100;2023-04-28T06:23:22;100172.83;;;11.64;73.46
61761;BME280;47664;51.660;-0.100;2023-04-28T06:25:49;100171.49;;;11.21;73.19
61761;BME280;47664;51.660;-0.100;2023-04-28T06:28:17;100171.19;;;11.72;73.32
61761;BME280;47664;51.660;-0.100;2023-04-28T06:30:44;100173.94;;;10.75;73.45
61761;BME280;47664;51.660;-0.100;2023-04-28T06:33:11;100173.02;;;11.84;72.57
61761;BME280;47664;51.660;-0.100;2023-04-28T06:35:39;100178.43;;;10.88;72.63
61761;BME280;47664;51.660;-0.100;2023-04-28T06:38:06;100182.04;;;11.37;73.31
61761;BME280;47664;51.660;-0.100;2023-04-28T06:40:33;100180.15;;;11.45;73.63
61761;BME280;47664;51.660;-0.100;2023-04-28T06:43:01;100182.23;;;11.47;73.58
61761;BME280;47664;51.660;-0.100;2023-04-28T06:45:28;100181.43;;;11.84;72.89
61761;BME280;47664;51.660;-0.100;2023-04-28T06:47:55;100184.19;;;11.66;72.73
61761;BME280;47664;51.660;-0.100;2023-04-28T06:50:22;100185.32;;;11.91;72.81
61761;BME280;47664;51.660;-0.100;2023-04-28T06:52:50;100193.81;;;11.67;73.37
61761;BME280;47664;51.660;-0.100;2023-04-28T06:55:17;100195.70;;;12.13;72.50
61761;BME280;47664;51.660;-0.100;2023-04-28T06:57:44;100199.57;;;11.14;72.98
61761;BME280;47664;51.660;-0.100;2023-04-28T07:00:12;100196.70;;;11.75;73.67
61761;BME280;47664;51.660;-0.100;2023-04-28T07:02:41;100197.33;;;10.94;73.48
61761;BME280;47664;51.660;-0.100;2023-04-28T07:05:09;100195.99;;;11.95;72.70
61761;BME280;47664;51.660;-0.100;2023-04-28T07:07:37;100197.72;;;11.33;72.65
61761;BME280;47664;51.660;-0.100;2023-04-28T07:10:05;100199.08;;;11.94;72.56
61761;BME280;47664;51.660;-0.100;2023-04-28T07:12:33;100201.75;;;11.84;72.96
61761;BME280;47664;51.660;-0.100;2023-04-28T07:15:00;100205.92;;;11.37;74.33
61761;BME280;47664;51.660;-0.100;2023-04-28T07:17:27;100207.48;;;11.39;74.61
61761;BME280;47664;51.660;-0.100;2023-04-28T07:19:54;100210.16;;;11.58;73.95
61761;BME280;47664;51.660;-0.100;2023-04-28T07:22:21;100212.52;;;11.73;73.86
61761;BME280;47664;51.660;-0.100;2023-04-28T07:24:48;100213.45;;;11.11;75.15
61761;BME280;47664;51.660;-0.100;2023-04-28T07:27:15;100219.52;;;11.66;75.40
61761;BME280;47664;51.660;-0.100;2023-04-28T07:29:42;100214.69;;;10.66;74.59
61761;BME280;47664;51.660;-0.100;2023-04-28T07:32:09;100219.69;;;10.94;76.88
61761;BME280;47664;51.660;-0.100;2023-04-28T07:34:37;100227.73;;;10.74;76.76
61761;BME280;47664;51.660;-0.100;2023-04-28T07:37:04;100228.80;;;11.18;76.00
61761;BME280;47664;51.660;-0.100;2023-04-28T07:39:33;100231.24;;;11.53;76.06
61761;BME280;47664;51.660;-0.100;2023-04-28T07:42:00;100233.02;;;10.73;76.82
61761;BME280;47664;51.660;-0.100;2023-04-28T07:44:27;100235.18;;;11.54;76.16
61761;BME280;47664;51.660;-0.100;2023-04-28T07:46:55;100234.81;;;11.48;74.77
61761;BME280;47664;51.660;-0.100;2023-04-28T07:49:23;100243.06;;;11.47;74.94
61761;BME280;47664;51.660;-0.100;2023-04-28T07:51:50;100244.21;;;11.24;75.39
61761;BME280;47664;51.660;-0.100;2023-04-28T07:54:18;100244.82;;;11.72;74.74
61761;BME280;47664;51.660;-0.100;2023-04-28T07:56:45;100248.13;;;11.24;73.80
61761;BME280;47664;51.660;-0.100;2023-04-28T07:59:12;100251.98;;;11.85;73.69
61761;BME280;47664;51.660;-0.100;2023-04-28T08:01:44;100254.00;;;11.13;74.51
61761;BME280;47664;51.660;-0.100;2023-04-28T08:04:11;100247.55;;;11.71;74.35
61761;BME280;47664;51.660;-0.100;2023-04-28T08:06:39;100256.56;;;11.39;73.60
61761;BME280;47664;51.660;-0.100;2023-04-28T08:09:06;100257.90;;;12.22;73.39
61761;BME280;47664;51.660;-0.100;2023-04-28T08:11:33;100260.32;;;11.72;73.73
61761;BME280;47664;51.660;-0.100;2023-04-28T08:14:01;100259.50;;;11.96;73.64
61761;BME280;47664;51.660;-0.100;2023-04-28T08:16:28;100259.13;;;12.01;73.94
61761;BME280;47664;51.660;-0.100;2023-04-28T08:18:56;100260.30;;;12.22;73.11
61761;BME280;47664;51.660;-0.100;2023-04-28T08:21:24;100262.23;;;12.79;71.42
61761;BME280;47664;51.660;-0.100;2023-04-28T08:23:50;100267.14;;;12.14;72.05
61761;BME280;47664;51.660;-0.100;2023-04-28T08:26:18;100267.13;;;12.40;72.68
61761;BME280;47664;51.660;-0.100;2023-04-28T08:28:45;100266.67;;;11.46;72.21
61761;BME280;47664;51.660;-0.100;2023-04-28T08:31:12;100267.13;;;11.85;73.67
61761;BME280;47664;51.660;-0.100;2023-04-28T08:33:40;100268.57;;;11.49;73.67
61761;BME280;47664;51.660;-0.100;2023-04-28T08:36:07;100275.50;;;11.84;73.89
61761;BME280;47664;51.660;-0.100;2023-04-28T08:38:34;100276.94;;;11.58;73.92
61761;BME280;47664;51.660;-0.100;2023-04-28T08:41:03;100273.43;;;12.02;72.83
61761;BME280;47664;51.660;-0.100;2023-04-28T08:43:32;100276.20;;;12.88;72.21
61761;BME280;47664;51.660;-0.100;2023-04-28T08:46:05;100276.32;;;12.47;71.92
61761;BME280;47664;51.660;-0.100;2023-04-28T08:48:39;100278.54;;;13.20;70.54
61761;BME280;47664;51.660;-0.100;2023-04-28T08:51:07;100277.78;;;13.13;70.61
61761;BME280;47664;51.660;-0.100;2023-04-28T08:53:37;100281.01;;;12.89;69.59
61761;BME280;47664;51.660;-0.100;2023-04-28T08:56:05;100281.39;;;13.00;70.09
61761;BME280;47664;51.660;-0.100;2023-04-28T08:58:35;100286.79;;;13.03;70.41
61761;BME280;47664;51.660;-0.100;2023-04-28T09:01:02;100289.52;;;13.16;70.09
61761;BME280;47664;51.660;-0.100;2023-04-28T09:03:29;100289.85;;;12.97;71.84
61761;BME280;47664;51.660;-0.100;2023-04-28T09:05:55;100291.07;;;12.95;70.42
61761;BME280;47664;51.660;-0.100;2023-04-28T09:08:23;100294.22;;;13.35;69.75
61761;BME280;47664;51.660;-0.100;2023-04-28T09:11:05;100293.75;;;12.96;69.86
61761;BME280;47664;51.660;-0.100;2023-04-28T09:13:32;100292.46;;;13.34;69.54
61761;BME280;47664;51.660;-0.100;2023-04-28T09:16:00;100296.73;;;13.04;68.49
61761;BME280;47664;51.660;-0.100;2023-04-28T09:18:27;100295.71;;;12.98;69.98
61761;BME280;47664;51.660;-0.100;2023-04-28T09:21:02;100295.70;;;12.66;70.38
61761;BME280;47664;51.660;-0.100;2023-04-28T09:23:31;100304.37;;;12.86;70.46
61761;BME280;47664;51.660;-0.100;2023-04-28T09:25:59;100306.90;;;13.19;69.55
61761;BME280;47664;51.660;-0.100;2023-04-28T09:28:27;100309.27;;;13.25;68.20
61761;BME280;47664;51.660;-0.100;2023-04-28T09:30:55;100313.37;;;12.50;69.82
61761;BME280;47664;51.660;-0.100;2023-04-28T09:33:22;100316.49;;;13.00;69.83
61761;BME280;47664;51.660;-0.100;2023-04-28T09:35:49;100313.38;;;12.43;68.74
61761;BME280;47664;51.660;-0.100;2023-04-28T09:38:18;100323.06;;;13.76;68.20
61761;BME280;47664;51.660;-0.100;2023-04-28T09:40:55;100327.49;;;13.11;67.73
61761;BME280;47664;51.660;-0.100;2023-04-28T09:43:25;100327.91;;;13.59;67.36
61761;BME280;47664;51.660;-0.100;2023-04-28T09:45:53;100328.32;;;13.68;66.40
61761;BME280;47664;51.660;-0.100;2023-04-28T09:48:30;100324.41;;;13.42;68.26
61761;BME280;47664;51.660;-0.100;2023-04-28T09:50:58;100327.76;;;13.15;67.45
61761;BME280;47664;51.660;-0.100;2023-04-28T09:53:26;100327.98;;;13.26;67.85
61761;BME280;47664;51.660;-0.100;2023-04-28T09:55:55;100338.34;;;12.65;68.47
61761;BME280;47664;51.660;-0.100;2023-04-28T09:58:24;100336.74;;;12.81;68.63
61761;BME280;47664;51.660;-0.100;2023-04-28T10:00:53;100343.80;;;12.28;70.19
61761;BME280;47664;51.660;-0.100;2023-04-28T10:03:22;100346.23;;;12.38;70.23
61761;BME280;47664;51.660;-0.100;2023-04-28T10:05:50;100349.77;;;12.12;70.01
61761;BME280;47664;51.660;-0.100;2023-04-28T10:08:18;100351.05;;;12.94;69.23
61761;BME280;47664;51.660;-0.100;2023-04-28T10:10:46;100357.91;;;12.70;69.71
61761;BME280;47664;51.660;-0.100;2023-04-28T10:13:13;100358.38;;;12.70;70.11
61761;BME280;47664;51.660;-0.100;2023-04-28T10:15:41;100361.84;;;13.10;68.56
61761;BME280;47664;51.660;-0.100;2023-04-28T10:18:10;100362.05;;;13.03;68.11
61761;BME280;47664;51.660;-0.100;2023-04-28T10:20:39;100366.98;;;12.47;68.69
61761;BME280;47664;51.660;-0.100;2023-04-28T10:23:29;100375.33;;;12.71;68.05
61761;BME280;47664;51.660;-0.100;2023-04-28T10:25:59;100373.10;;;12.76;67.69
61761;BME280;47664;51.660;-0.100;2023-04-28T10:28:29;100380.33;;;12.99;67.89
61761;BME280;47664;51.660;-0.100;2023-04-28T10:31:13;100389.56;;;12.38;69.13
61761;BME280;47664;51.660;-0.100;2023-04-28T10:33:41;100394.04;;;12.36;69.47
61761;BME280;47664;51.660;-0.100;2023-04-28T10:36:09;100396.71;;;12.45;70.12
61761;BME280;47664;51.660;-0.100;2023-04-28T10:39:07;100397.93;;;12.24;70.14
61761;BME280;47664;51.660;-0.100;2023-04-28T10:41:35;100404.91;;;12.54;70.41
61761;BME280;47664;51.660;-0.100;2023-04-28T10:44:40;100407.59;;;12.59;69.31
61761;BME280;47664;51.660;-0.100;2023-04-28T10:47:08;100408.13;;;13.01;69.25
61761;BME280;47664;51.660;-0.100;2023-04-28T10:50:08;100410.68;;;12.71;68.82
61761;BME280;47664;51.660;-0.100;2023-04-28T10:52:51;100411.60;;;12.65;67.83
61761;BME280;47664;51.660;-0.100;2023-04-28T10:55:34;100412.77;;;13.12;68.68
61761;BME280;47664;51.660;-0.100;2023-04-28T10:58:42;100415.34;;;13.35;68.11
61761;BME280;47664;51.660;-0.100;2023-04-28T11:01:26;100419.55;;;13.84;66.64
61761;BME280;47664;51.660;-0.100;2023-04-28T11:03:54;100418.52;;;13.51;66.47
61761;BME280;47664;51.660;-0.100;2023-04-28T11:06:23;100420.93;;;13.87;64.88
61761;BME280;47664;51.660;-0.100;2023-04-28T11:08:51;100420.11;;;13.52;65.25
61761;BME280;47664;51.660;-0.100;2023-04-28T11:11:20;100418.89;;;14.15;63.27
61761;BME280;47664;51.660;-0.100;2023-04-28T11:13:48;100420.62;;;13.36;63.30
61761;BME280;47664;51.660;-0.100;2023-04-28T11:16:17;100423.44;;;14.30;64.35
61761;BME280;47664;51.660;-0.100;2023-04-28T11:18:56;100423.89;;;13.08;65.00
61761;BME280;47664;51.660;-0.100;2023-04-28T11:21:25;100425.24;;;14.46;62.74
61761;BME280;47664;51.660;-0.100;2023-04-28T11:23:53;100426.13;;;14.70;61.73
61761;BME280;47664;51.660;-0.100;2023-04-28T11:26:20;100430.78;;;14.41;63.00
61761;BME280;47664;51.660;-0.100;2023-04-28T11:28:49;100432.17;;;13.47;62.91
61761;BME280;47664;51.660;-0.100;2023-04-28T11:31:20;100429.11;;;14.04;62.86
61761;BME280;47664;51.660;-0.100;2023-04-28T11:33:50;100433.67;;;12.82;63.77
61761;BME280;47664;51.660;-0.100;2023-04-28T11:36:28;100433.85;;;13.34;64.50
61761;BME280;47664;51.660;-0.100;2023-04-28T11:38:56;100434.14;;;13.34;64.39
61761;BME280;47664;51.660;-0.100;2023-04-28T11:41:23;100435.88;;;13.71;62.94
61761;BME280;47664;51.660;-0.100;2023-04-28T11:43:51;100440.98;;;13.71;61.88
61761;BME280;47664;51.660;-0.100;2023-04-28T11:46:19;100440.50;;;14.76;60.06
61761;BME280;47664;51.660;-0.100;2023-04-28T11:48:47;100444.62;;;13.79;61.39
61761;BME280;47664;51.660;-0.100;2023-04-28T11:51:47;100435.76;;;14.31;61.60
61761;BME280;47664;51.660;-0.100;2023-04-28T11:54:20;100441.55;;;14.55;60.29
61761;BME280;47664;51.660;-0.100;2023-04-28T11:56:47;100439.48;;;14.07;59.65
61761;BME280;47664;51.660;-0.100;2023-04-28T11:59:15;100446.02;;;14.95;59.87
61761;BME280;47664;51.660;-0.100;2023-04-28T12:01:46;100449.05;;;13.49;61.38
61761;BME280;47664;51.660;-0.100;2023-04-28T12:04:15;100449.08;;;14.30;61.18
61761;BME280;47664;51.660;-0.100;2023-04-28T12:06:58;100453.81;;;13.75;60.72
61761;BME280;47664;51.660;-0.100;2023-04-28T12:09:26;100456.31;;;14.19;61.33
61761;BME280;47664;51.660;-0.100;2023-04-28T12:11:55;100457.30;;;13.75;61.45
61761;BME280;47664;51.660;-0.100;2023-04-28T12:14:23;100463.01;;;13.96;61.11
61761;BME280;47664;51.660;-0.100;2023-04-28T12:16:51;100463.89;;;13.64;60.52
61761;BME280;47664;51.660;-0.100;2023-04-28T12:19:18;100465.92;;;14.04;61.52
61761;BME280;47664;51.660;-0.100;2023-04-28T12:21:59;100468.00;;;12.74;62.42
61761;BME280;47664;51.660;-0.100;2023-04-28T12:24:27;100471.41;;;14.11;62.23
61761;BME280;47664;51.660;-0.100;2023-04-28T12:26:54;100473.43;;;13.76;63.26
61761;BME280;47664;51.660;-0.100;2023-04-28T12:29:38;100474.31;;;14.41;62.45
61761;BME280;47664;51.660;-0.100;2023-04-28T12:32:07;100477.38;;;14.35;62.00
61761;BME280;47664;51.660;-0.100;2023-04-28T12:35:31;100477.53;;;15.40;59.68
61761;BME280;47664;51.660;-0.100;2023-04-28T12:37:58;100482.52;;;14.43;59.63
61761;BME280;47664;51.660;-0.100;2023-04-28T12:40:25;100483.50;;;15.31;59.81
61761;BME280;47664;51.660;-0.100;2023-04-28T12:42:53;100485.43;;;14.61;60.08
61761;BME280;47664;51.660;-0.100;2023-04-28T12:45:20;100485.72;;;14.83;60.05
61761;BME280;47664;51.660;-0.100;2023-04-28T12:47:47;100485.35;;;14.46;58.72
61761;BME280;47664;51.660;-0.100;2023-04-28T12:50:13;100485.83;;;15.49;56.75